createdAt,value
2017-09-11T00:02:40.074Z,51
2017-09-11T00:07:44.802Z,51
2017-09-11T00:12:49.862Z,51
2017-09-11T00:17:55.262Z,51
2017-09-11T00:23:00.326Z,51.1
2017-09-11T00:28:05.387Z,51.1
2017-09-11T00:33:10.784Z,51.1
2017-09-11T00:38:15.849Z,51.1
2017-09-11T00:43:21.581Z,51.1
2017-09-11T00:48:27.651Z,51.1
2017-09-11T00:53:32.719Z,51.1
2017-09-11T00:58:37.449Z,51.1
2017-09-11T01:03:42.846Z,51.1
2017-09-11T01:08:48.580Z,51.1
2017-09-11T01:13:53.315Z,51.1
2017-09-11T01:18:59.380Z,51.1
2017-09-11T01:24:03.774Z,51.2
2017-09-11T01:29:08.843Z,51.2
2017-09-11T01:34:14.575Z,51.3
2017-09-11T01:39:18.632Z,51.4
2017-09-11T01:44:24.027Z,51.4
2017-09-11T01:49:30.093Z,51.5
2017-09-11T01:54:34.821Z,51.5
2017-09-11T01:59:40.225Z,51.5
2017-09-11T02:04:45.285Z,51.5
2017-09-11T02:09:50.012Z,51.5
2017-09-11T02:14:55.745Z,51.5
2017-09-11T02:20:01.146Z,51.6
2017-09-11T02:25:05.879Z,51.5
2017-09-11T02:30:11.615Z,51.5
2017-09-11T02:35:16.677Z,51.6
2017-09-11T02:40:22.078Z,51.6
2017-09-11T02:45:27.478Z,51.6
2017-09-11T02:50:32.539Z,51.6
2017-09-11T02:55:37.938Z,51.6
2017-09-11T03:00:43.672Z,51.5
2017-09-11T03:05:48.404Z,51.6
2017-09-11T03:10:53.804Z,51.6
2017-09-11T03:15:58.533Z,51.6
2017-09-11T03:21:03.931Z,51.5
2017-09-11T03:26:09.332Z,51.5
2017-09-11T03:31:15.069Z,51.6
2017-09-11T03:36:21.139Z,51.5
2017-09-11T03:41:26.202Z,51.5
2017-09-11T03:46:31.603Z,51.5
2017-09-11T03:51:37.333Z,51.5
2017-09-11T03:56:42.727Z,51.5
2017-09-11T04:01:48.131Z,51.5
2017-09-11T04:06:53.214Z,51.5
2017-09-11T04:11:58.279Z,51.5
2017-09-11T04:17:04.346Z,51.5
2017-09-11T04:22:09.745Z,51.5
2017-09-11T04:27:14.809Z,51.5
2017-09-11T04:32:19.533Z,51.5
2017-09-11T04:37:24.598Z,51.5
2017-09-11T04:42:29.668Z,51.5
2017-09-11T04:47:34.733Z,51.5
2017-09-11T04:52:39.459Z,51.6
2017-09-11T04:57:44.189Z,51.7
2017-09-11T05:02:49.454Z,51.8
2017-09-11T05:07:54.875Z,52.4
2017-09-11T05:12:59.940Z,52.2
2017-09-11T05:18:05.026Z,51.9
2017-09-11T05:23:10.422Z,51.7
2017-09-11T05:28:16.157Z,51.8
2017-09-11T05:33:21.226Z,51.7
2017-09-11T05:38:26.631Z,51.7
2017-09-11T05:43:31.697Z,51.8
2017-09-11T05:48:36.762Z,51.7
2017-09-11T05:53:42.163Z,51.7
2017-09-11T05:58:47.897Z,51.7
2017-09-11T06:03:52.628Z,51.6
2017-09-11T06:08:58.368Z,51.5
2017-09-11T06:14:03.768Z,49.9
2017-09-11T06:19:09.168Z,49.3
2017-09-11T06:24:14.232Z,49
2017-09-11T06:29:19.964Z,49
2017-09-11T06:34:24.690Z,48.9
2017-09-11T06:39:29.755Z,49.2
2017-09-11T06:44:35.150Z,49.7
2017-09-11T06:49:40.213Z,49.8
2017-09-11T06:54:45.268Z,49.9
2017-09-11T06:59:49.990Z,49.9
2017-09-11T07:04:55.054Z,50
2017-09-11T07:10:00.785Z,50
2017-09-11T07:15:06.191Z,50.3
2017-09-11T07:20:10.910Z,50.2
2017-09-11T07:25:15.635Z,50.5
2017-09-11T07:30:21.035Z,50.4
2017-09-11T07:35:26.431Z,50.6
2017-09-11T07:40:31.836Z,50.6
2017-09-11T07:45:37.235Z,50.5
2017-09-11T07:50:42.635Z,50.1
2017-09-11T07:55:47.366Z,49.6
2017-09-11T08:00:51.762Z,49.1
2017-09-11T08:05:56.834Z,48.6
2017-09-11T08:11:01.903Z,48
2017-09-11T08:16:07.307Z,47.7
2017-09-11T08:21:12.714Z,47.4
2017-09-11T08:26:18.792Z,47.3
2017-09-11T08:31:24.201Z,47.4
2017-09-11T08:36:29.936Z,47.4
2017-09-11T08:41:35.005Z,47.2
2017-09-11T08:46:40.411Z,46.8
2017-09-11T08:51:45.482Z,46.6
2017-09-11T08:56:50.891Z,46.3
2017-09-11T09:01:55.965Z,45.9
2017-09-11T09:07:01.374Z,45.8
2017-09-11T09:12:06.117Z,45.8
2017-09-11T09:17:11.863Z,45.8
2017-09-11T09:22:16.946Z,45.8
2017-09-11T09:27:22.033Z,45.4
2017-09-11T09:32:27.780Z,44.8
2017-09-11T09:37:32.856Z,44.4
2017-09-11T09:42:37.954Z,44.5
2017-09-11T09:47:42.652Z,44.7
2017-09-11T09:52:47.065Z,45.2
2017-09-11T09:57:52.476Z,45.6
2017-09-11T10:02:57.884Z,45.3
2017-09-11T10:08:02.626Z,45.1
2017-09-11T10:13:08.373Z,44.8
2017-09-11T10:18:13.449Z,45.1
2017-09-11T10:23:18.861Z,45.3
2017-09-11T10:28:24.267Z,45.8
2017-09-11T10:33:29.064Z,46.2
2017-09-11T10:38:34.474Z,46.5
2017-09-11T10:43:39.551Z,46.6
2017-09-11T10:48:45.297Z,46.6
2017-09-11T10:53:50.370Z,46.3
2017-09-11T10:58:55.111Z,46.1
2017-09-11T11:04:00.856Z,46
2017-09-11T11:09:06.264Z,45.9
2017-09-11T11:14:11.673Z,45.8
2017-09-11T11:19:16.748Z,45.7
2017-09-11T11:24:21.820Z,45.8
2017-09-11T11:29:26.897Z,45.8
2017-09-11T11:34:32.304Z,45.8
2017-09-11T11:39:37.730Z,45.9
2017-09-11T11:44:42.811Z,46
2017-09-11T11:49:48.226Z,46
2017-09-11T11:54:52.961Z,45.9
2017-09-11T11:59:58.724Z,45.8
2017-09-11T12:05:03.127Z,45.8
2017-09-11T12:10:08.534Z,45.8
2017-09-11T12:15:13.609Z,45.8
2017-09-11T12:20:18.371Z,45.8
2017-09-11T12:25:23.107Z,45.8
2017-09-11T12:30:28.181Z,45.8
2017-09-11T12:35:32.248Z,45.6
2017-09-11T12:40:37.317Z,45.6
2017-09-11T12:45:42.730Z,45.5
2017-09-11T12:50:48.148Z,45.4
2017-09-11T12:55:53.558Z,45.5
2017-09-11T13:00:58.297Z,45.5
2017-09-11T13:06:04.048Z,45.4
2017-09-11T13:11:09.795Z,45.3
2017-09-11T13:16:14.869Z,45.2
2017-09-11T13:21:19.937Z,45.2
2017-09-11T13:26:25.345Z,45.1
2017-09-11T13:31:30.086Z,45.1
2017-09-11T13:36:35.157Z,45
2017-09-11T13:41:40.564Z,45
2017-09-11T13:46:45.635Z,45.1
2017-09-11T13:51:50.708Z,45.1
2017-09-11T13:56:55.117Z,45.3
2017-09-11T14:02:00.528Z,45.3
2017-09-11T14:07:05.932Z,45.3
2017-09-11T14:12:10.670Z,45.3
2017-09-11T14:17:16.481Z,45.1
2017-09-11T14:22:21.556Z,45
2017-09-11T14:27:26.627Z,44.9
2017-09-11T14:32:32.036Z,44.7
2017-09-11T14:37:37.088Z,44.6
2017-09-11T14:42:43.325Z,44.4
2017-09-11T14:47:48.952Z,44.2
2017-09-11T14:52:54.416Z,44.1
2017-09-11T14:57:59.492Z,44.1
2017-09-11T15:03:04.591Z,43.9
2017-09-11T15:08:10.316Z,43.7
2017-09-11T15:13:15.389Z,43.8
2017-09-11T15:18:21.136Z,44
2017-09-11T15:23:26.563Z,44.3
2017-09-11T15:28:31.650Z,44.6
2017-09-11T15:33:37.433Z,44.9
2017-09-11T15:38:42.538Z,45.1
2017-09-11T15:43:47.617Z,45.3
2017-09-11T15:48:52.905Z,45.6
2017-09-11T15:53:58.318Z,45.7
2017-09-11T15:59:03.732Z,46.1
2017-09-11T16:04:09.153Z,46.3
2017-09-11T16:09:14.559Z,46.7
2017-09-11T16:14:19.978Z,47
2017-09-11T16:19:24.729Z,47.3
2017-09-11T16:24:29.144Z,47.6
2017-09-11T16:29:34.621Z,47.8
2017-09-11T16:34:39.702Z,48.1
2017-09-11T16:39:44.802Z,48.2
2017-09-11T16:44:50.549Z,48.4
2017-09-11T16:49:55.632Z,48.5
2017-09-11T16:55:00.716Z,48.8
2017-09-11T17:00:05.813Z,49
2017-09-11T17:05:10.901Z,49.1
2017-09-11T17:10:16.994Z,49.2
2017-09-11T17:15:22.757Z,49.2
2017-09-11T17:20:28.167Z,49.2
2017-09-11T17:25:32.927Z,49.2
2017-09-11T17:30:38.012Z,49.2
2017-09-11T17:35:43.432Z,48.9
2017-09-11T17:40:48.174Z,48.6
2017-09-11T17:45:53.593Z,47.9
2017-09-11T17:50:59.347Z,45.6
2017-09-11T17:56:03.776Z,44.4
2017-09-11T18:01:08.498Z,43.7
2017-09-11T18:06:14.242Z,43.8
2017-09-11T18:11:19.981Z,43.7
2017-09-11T18:16:25.715Z,44.2
2017-09-11T18:21:30.145Z,44.2
2017-09-11T18:26:35.556Z,44.5
2017-09-11T18:31:40.623Z,44.7
2017-09-11T18:36:45.689Z,44.8
2017-09-11T18:41:51.425Z,44.8
2017-09-11T18:46:56.489Z,45.1
2017-09-11T18:52:00.897Z,45.5
2017-09-11T18:57:06.308Z,45.8
2017-09-11T19:02:10.712Z,45.9
2017-09-11T19:07:15.790Z,45.9
2017-09-11T19:12:20.862Z,45.9
2017-09-11T19:17:25.940Z,46
2017-09-11T19:22:31.677Z,46
2017-09-11T19:27:37.420Z,46
2017-09-11T19:32:43.166Z,45.4
2017-09-11T19:37:48.589Z,44.6
2017-09-11T19:42:53.659Z,45.4
2017-09-11T19:47:58.983Z,45.9
2017-09-11T19:53:04.059Z,46.1
2017-09-11T19:58:09.131Z,45
2017-09-11T20:03:13.528Z,45.3
2017-09-11T20:08:18.604Z,45.9
2017-09-11T20:13:23.355Z,46
2017-09-11T20:18:29.097Z,46
2017-09-11T20:23:34.839Z,46
2017-09-11T20:28:39.574Z,46
2017-09-11T20:33:44.648Z,46.1
2017-09-11T20:38:49.723Z,46.2
2017-09-11T20:43:54.792Z,46.3
2017-09-11T20:48:59.864Z,46.4
2017-09-11T20:54:05.601Z,46.5
2017-09-11T20:59:11.023Z,46.7
2017-09-11T21:04:16.086Z,46.8
2017-09-11T21:09:20.819Z,46.9
2017-09-11T21:14:26.225Z,47
2017-09-11T21:19:31.290Z,47.1
2017-09-11T21:24:36.359Z,47.2
2017-09-11T21:29:41.757Z,47.3
2017-09-11T21:34:47.488Z,47.4
2017-09-11T21:39:52.221Z,47.4
2017-09-11T21:44:57.620Z,47.6
2017-09-11T21:50:02.690Z,47.7
2017-09-11T21:55:08.097Z,47.7
2017-09-11T22:00:13.830Z,47.8
2017-09-11T22:05:19.565Z,47.9
2017-09-11T22:10:24.965Z,48
2017-09-11T22:15:30.027Z,48
2017-09-11T22:20:35.763Z,48.1
2017-09-11T22:25:41.759Z,48.2
2017-09-11T22:30:46.486Z,48.2
2017-09-11T22:35:51.548Z,48.3
2017-09-11T22:40:55.945Z,48.3
2017-09-11T22:46:01.681Z,48.4
2017-09-11T22:51:07.418Z,48.5
2017-09-11T22:56:13.154Z,48.5
2017-09-11T23:01:18.216Z,48.5
2017-09-11T23:06:22.946Z,48.6
2017-09-11T23:11:28.680Z,48.6
2017-09-11T23:16:33.743Z,48.6
2017-09-11T23:21:38.133Z,48.7
2017-09-11T23:26:43.532Z,48.7
2017-09-11T23:31:48.931Z,48.8
2017-09-11T23:36:54.668Z,48.8
2017-09-11T23:41:59.727Z,48.8
2017-09-11T23:47:04.792Z,48.9
2017-09-11T23:52:09.861Z,48.9
2017-09-11T23:57:15.928Z,48.9
